Terminal Aerodrome Forecast
Issued by NWS Boston, MA

Current Version | Previous Version | Text Only | Print | Product List | Glossary On
Versions: 1 2 3 4 5 6 7 8 9 10 11 12 13 14 15 16 17 18 19 20 21 22 23 24 25 26 27 28 29 30 31 32 33 34 35 36 37 38 39 40 41 42 43 44 45 46
000
FTUS41 KBOX 061734
TAFPVD
TAF
KPVD 061734Z 0618/0718 06006KT P6SM FEW070 FEW110 BKN250
     FM062200 17007KT P6SM FEW250
     FM070400 VRB03KT P6SM SKC
     FM071600 21006KT P6SM SKC=

USA.gov is the U.S. government's official web portal to all federal, state and local government web resources and services.